»·PEaware :: UAL982 KRDD-KPDX

UAL982 :: KRDD-KPDX

FLIGHT INFORMATION

Flight Status: Arrived
Operator:
United Airlines
More flights by this operator :: More flights under this callsign
Pilot: Anonymous 15639 (15639)
Aircraft: BOEING 737-800
(B738)
More flights by this aircraft type
Origin: KRDD Redding Mun
United States
Destination: KPDX Portland Intl
United States
More flights between these airports :: More routes between these airports
Route: +SHASTA3 OED MOXEE TMBRS2
File this flight plan on PilotEdge
Remarks: PBN / A1B1C1D1S1S2 DOF / 181007 REG / ZSJSU EET / KZSE0013 OPR / UAL PER / C RMK / TCAS SIMBRIEF
Altitude:
(Current/Filed)
38,000ft
Speed:
(Current/Filed)
462kts
Departed: 07-Oct-18 08:35 AM
Arrived: 07-Oct-18 09:41 AM
Distance/Time
Traveled:
305nm/1:06
Distance/Time
To Go:
Arrived

Flight Plot

Page will automatically refresh every two minutes.

Flight plan parsing failed; only flown route is shown


Map Options




Map Legend


Flown Route
Filed Route
Departure Airport
Arrival Airport
Navaid (VOR, NDB)
Fix

Horizontal Profiles

Position Reports

Time Latitude Longitude Heading Altitude Ground
Speed
07-Oct-18 08:04 40.505337 -122.298962 314 511ft 0kts
07-Oct-18 08:05 40.505337 -122.298962 314 511ft 0kts
07-Oct-18 08:06 40.505337 -122.298962 314 511ft 0kts
07-Oct-18 08:07 40.505337 -122.298962 314 511ft 0kts
07-Oct-18 08:08 40.505337 -122.298962 314 511ft 0kts
07-Oct-18 08:09 40.505337 -122.298962 314 511ft 0kts
07-Oct-18 08:10 40.505337 -122.298962 314 511ft 0kts
07-Oct-18 08:11 40.505337 -122.298962 314 511ft 0kts
07-Oct-18 08:12 40.505337 -122.298962 314 511ft 0kts
07-Oct-18 08:13 40.505337 -122.298962 314 511ft 0kts
07-Oct-18 08:14 40.505337 -122.298962 314 511ft 0kts
07-Oct-18 08:15 40.505337 -122.298962 314 511ft 0kts
07-Oct-18 08:16 40.505337 -122.298962 314 511ft 0kts
07-Oct-18 08:17 40.505337 -122.298962 314 511ft 0kts
07-Oct-18 08:18 40.505337 -122.298962 314 511ft 0kts
07-Oct-18 08:19 40.505337 -122.298962 314 511ft 0kts
07-Oct-18 08:20 40.505337 -122.298962 314 511ft 0kts
07-Oct-18 08:21 40.505337 -122.298962 314 511ft 0kts
07-Oct-18 08:22 40.505337 -122.298962 314 511ft 0kts
07-Oct-18 08:23 40.505337 -122.298962 314 511ft 0kts
07-Oct-18 08:24 40.505337 -122.298962 314 511ft 0kts
07-Oct-18 08:25 40.505337 -122.298962 314 511ft 0kts
07-Oct-18 08:26 40.505337 -122.298962 314 511ft 0kts
07-Oct-18 08:27 40.505337 -122.298962 314 511ft 0kts
07-Oct-18 08:28 40.505337 -122.298962 314 511ft 0kts
07-Oct-18 08:29 40.505337 -122.298962 314 511ft 0kts
07-Oct-18 08:30 40.505337 -122.298962 314 511ft 0kts
07-Oct-18 08:31 40.505238 -122.298531 240 511ft 2kts
07-Oct-18 08:32 40.505525 -122.298372 174 511ft 0kts
07-Oct-18 08:33 40.505525 -122.298372 174 511ft 0kts
07-Oct-18 08:34 40.505525 -122.298372 174 511ft 0kts
07-Oct-18 08:35 40.503454 -122.297937 142 511ft 8kts
07-Oct-18 08:36 40.501970 -122.296043 135 511ft 8kts
07-Oct-18 08:37 40.508361 -122.294865 359 511ft 106kts
07-Oct-18 08:38 40.541957 -122.295377 356 1718ft 161kts
07-Oct-18 08:39 40.600026 -122.299134 354 3463ft 250kts
07-Oct-18 08:40 40.669648 -122.308351 347 7008ft 256kts
07-Oct-18 08:41 40.739002 -122.330757 347 10222ft 262kts
07-Oct-18 08:42 40.815872 -122.355710 349 12658ft 296kts
07-Oct-18 08:43 40.896002 -122.381834 349 16067ft 302kts
07-Oct-18 08:44 40.977818 -122.408548 350 19259ft 309kts
07-Oct-18 08:45 41.061856 -122.436018 349 22114ft 316kts
07-Oct-18 08:46 41.146567 -122.463771 349 24729ft 322kts
07-Oct-18 08:47 41.232985 -122.492169 349 27162ft 327kts
07-Oct-18 08:48 41.321308 -122.521236 349 29313ft 333kts
07-Oct-18 08:49 41.410068 -122.550558 349 31802ft 324kts
07-Oct-18 08:50 41.494881 -122.578657 349 34149ft 311kts
07-Oct-18 08:51 41.578075 -122.606244 350 35904ft 308kts
07-Oct-18 08:52 41.660200 -122.633542 350 37387ft 307kts
07-Oct-18 08:53 41.737391 -122.659334 349 38246ft 317kts
07-Oct-18 08:54 41.825909 -122.689276 349 38251ft 346kts
07-Oct-18 08:55 41.919220 -122.721019 348 38245ft 347kts
07-Oct-18 08:56 42.012327 -122.752766 349 38248ft 347kts
07-Oct-18 08:57 42.104423 -122.784229 349 38259ft 347kts
07-Oct-18 08:58 42.186071 -122.812173 349 38289ft 347kts
07-Oct-18 08:59 42.272203 -122.841692 348 38291ft 346kts
07-Oct-18 09:00 42.365204 -122.873629 349 38286ft 346kts
07-Oct-18 09:01 42.458366 -122.905645 349 38284ft 347kts
07-Oct-18 09:02 42.553694 -122.905788 3 38281ft 345kts
07-Oct-18 09:03 42.649048 -122.896927 3 38279ft 345kts
07-Oct-18 09:04 42.744465 -122.888025 3 38276ft 344kts
07-Oct-18 09:05 42.839639 -122.879096 3 38273ft 344kts
07-Oct-18 09:06 42.934688 -122.870087 2 38270ft 343kts
07-Oct-18 09:07 43.028954 -122.861133 2 38269ft 341kts
07-Oct-18 09:08 43.120219 -122.852449 2 38299ft 341kts
07-Oct-18 09:09 43.206031 -122.844265 2 38292ft 341kts
07-Oct-18 09:10 43.293291 -122.835928 2 38289ft 341kts
07-Oct-18 09:11 43.387694 -122.826895 2 38287ft 341kts
07-Oct-18 09:12 43.481417 -122.817919 2 38284ft 341kts
07-Oct-18 09:13 43.575398 -122.808914 2 37905ft 341kts
07-Oct-18 09:14 43.668240 -122.800005 2 36894ft 337kts
07-Oct-18 09:15 43.761156 -122.791097 2 35870ft 337kts
07-Oct-18 09:16 43.854192 -122.782181 2 34832ft 339kts
07-Oct-18 09:17 43.948477 -122.773139 2 32490ft 345kts
07-Oct-18 09:18 44.042554 -122.764077 2 30163ft 326kts
07-Oct-18 09:19 44.126694 -122.756019 2 28496ft 328kts
07-Oct-18 09:20 44.205705 -122.748315 2 26887ft 333kts
07-Oct-18 09:21 44.295962 -122.739398 2 25050ft 328kts
07-Oct-18 09:22 44.385700 -122.730509 2 23178ft 323kts
07-Oct-18 09:23 44.474711 -122.721668 2 21359ft 319kts
07-Oct-18 09:24 44.559904 -122.713166 2 19640ft 303kts
07-Oct-18 09:25 44.643401 -122.704801 2 17874ft 303kts
07-Oct-18 09:26 44.726086 -122.696469 2 16022ft 298kts
07-Oct-18 09:27 44.808194 -122.688175 2 14404ft 295kts
07-Oct-18 09:28 44.889540 -122.679963 2 12812ft 289kts
07-Oct-18 09:29 44.967453 -122.672087 3 11498ft 272kts
07-Oct-18 09:30 45.040875 -122.664543 1 10446ft 263kts
07-Oct-18 09:31 45.114350 -122.657041 1 9375ft 267kts
07-Oct-18 09:32 45.187958 -122.649530 1 8281ft 269kts
07-Oct-18 09:33 45.260758 -122.634503 25 7229ft 271kts
07-Oct-18 09:34 45.323082 -122.578835 34 6161ft 252kts
07-Oct-18 09:35 45.363952 -122.505591 54 5398ft 235kts
07-Oct-18 09:36 45.401552 -122.427764 54 4369ft 242kts
07-Oct-18 09:37 45.441286 -122.358121 16 3455ft 215kts
07-Oct-18 09:38 45.488350 -122.387667 324 2985ft 183kts
07-Oct-18 09:39 45.521592 -122.434526 300 2371ft 155kts
07-Oct-18 09:40 45.542295 -122.486487 299 1609ft 146kts
07-Oct-18 09:41 45.561681 -122.535834 299 828ft 142kts
07-Oct-18 09:42 45.580844 -122.584710 299 73ft 141kts
07-Oct-18 09:43 45.588786 -122.602348 348 37ft 9kts
07-Oct-18 09:44 45.588857 -122.599966 119 37ft 3kts
07-Oct-18 09:45 45.589405 -122.598956 40 37ft 1kts
07-Oct-18 09:46 45.589420 -122.598938 40 37ft 0kts
07-Oct-18 09:47 45.589420 -122.598938 40 37ft 0kts
07-Oct-18 09:48 45.589420 -122.598938 40 37ft 0kts
07-Oct-18 09:49 45.589420 -122.598938 40 37ft 0kts

Navigation Log

Ident Type
Flight plan parsing failed, navigation log unavailable